Time;durP1;ratioP1;P1;durP2;ratioP2;P2;SDS_P1;SDS_P2;PMS_P1;PMS_P2;Temp;Humidity;BMP_temperature;BMP_pressure;BME280_temperature;BME280_humidity;BME280_pressure;Samples;Min_cycle;Max_cycle;Signal;HPM_P1;HPM_P2
2024/04/14 00:00:50;;;;;;;11.55;2.30;;;8.20;99.90;;;;;;5505102;26;19993;-43
2024/04/14 00:03:16;;;;;;;12.95;3.08;;;8.20;99.90;;;;;;5504750;26;20006;-43
2024/04/14 00:05:42;;;;;;;13.52;3.53;;;8.20;99.90;;;;;;5504512;26;19994;-43
2024/04/14 00:08:08;;;;;;;11.90;2.10;;;8.10;99.90;;;;;;5504916;26;19990;-43
2024/04/14 00:10:33;;;;;;;13.20;2.70;;;8.10;99.90;;;;;;5505203;26;19990;-44
2024/04/14 00:12:59;;;;;;;10.82;1.80;;;8.10;99.90;;;;;;5503735;26;20035;-42
2024/04/14 00:15:25;;;;;;;11.02;2.05;;;8.10;99.90;;;;;;5504995;26;19990;-43
2024/04/14 00:17:50;;;;;;;16.13;3.50;;;8.10;99.90;;;;;;5504946;26;19993;-43
2024/04/14 00:20:16;;;;;;;16.02;4.97;;;8.10;99.90;;;;;;5504903;26;20014;-42
2024/04/14 00:22:43;;;;;;;10.85;2.97;;;8.10;99.90;;;;;;5504759;26;20039;-43
2024/04/14 00:25:08;;;;;;;13.95;2.42;;;8.00;99.90;;;;;;5504572;26;19992;-43
2024/04/14 00:27:34;;;;;;;12.25;3.58;;;8.00;99.90;;;;;;5504691;26;20148;-42
2024/04/14 00:30:00;;;;;;;15.27;2.97;;;8.00;99.90;;;;;;5504832;26;20171;-43
2024/04/14 00:32:25;;;;;;;11.50;1.83;;;8.00;99.90;;;;;;5504493;26;19990;-43
2024/04/14 00:34:51;;;;;;;10.18;2.42;;;8.00;99.90;;;;;;5504751;26;19986;-43
2024/04/14 00:37:17;;;;;;;13.63;2.40;;;8.00;99.90;;;;;;5504524;26;19990;-43
2024/04/14 00:39:43;;;;;;;15.82;2.35;;;7.90;99.90;;;;;;5504642;26;19993;-43
2024/04/14 00:42:08;;;;;;;12.68;2.30;;;7.90;99.90;;;;;;5504532;26;20155;-43
2024/04/14 00:44:34;;;;;;;15.65;1.92;;;7.90;99.90;;;;;;5503531;26;20008;-43
2024/04/14 00:47:00;;;;;;;9.57;2.03;;;7.90;99.90;;;;;;5504227;26;19990;-44
2024/04/14 00:49:26;;;;;;;16.25;2.50;;;7.90;99.90;;;;;;5503601;26;19986;-42
2024/04/14 00:51:52;;;;;;;10.63;1.98;;;7.90;99.90;;;;;;5503318;26;20055;-43
2024/04/14 00:54:18;;;;;;;9.07;2.28;;;7.90;99.90;;;;;;5504237;26;20043;-43
2024/04/14 00:56:46;;;;;;;10.27;2.47;;;7.90;99.90;;;;;;5504255;26;19990;-43
2024/04/14 00:59:13;;;;;;;13.75;3.80;;;7.80;99.90;;;;;;5503757;26;20053;-43
2024/04/14 01:01:38;;;;;;;15.75;3.10;;;7.80;99.90;;;;;;5503845;26;19986;-44
2024/04/14 01:04:05;;;;;;;15.43;3.35;;;7.80;99.90;;;;;;5504248;26;19986;-43
2024/04/14 01:06:31;;;;;;;14.73;2.70;;;7.70;99.90;;;;;;5506713;26;20095;-43
2024/04/14 01:08:57;;;;;;;10.57;3.05;;;7.70;99.90;;;;;;5476464;26;19986;-43
2024/04/14 01:11:22;;;;;;;9.20;2.00;;;7.70;99.90;;;;;;5507797;26;20014;-46
2024/04/14 01:13:48;;;;;;;7.75;1.98;;;7.70;99.90;;;;;;5507636;26;20035;-46
2024/04/14 01:16:14;;;;;;;15.07;2.35;;;7.60;99.90;;;;;;5507695;26;20022;-47
2024/04/14 01:18:39;;;;;;;12.95;2.15;;;7.60;99.90;;;;;;5507546;26;19997;-50
2024/04/14 01:21:05;;;;;;;12.55;2.90;;;7.60;99.90;;;;;;5507453;26;19990;-49
2024/04/14 01:23:31;;;;;;;10.45;2.10;;;7.70;99.90;;;;;;5507760;26;20164;-50
2024/04/14 01:25:57;;;;;;;14.98;2.90;;;7.60;99.90;;;;;;5507658;26;19996;-47
2024/04/14 01:28:22;;;;;;;8.82;2.00;;;7.60;99.90;;;;;;5506774;26;20012;-50
2024/04/14 01:30:48;;;;;;;8.40;2.08;;;7.60;99.90;;;;;;5507180;26;19990;-50
2024/04/14 01:33:15;;;;;;;11.77;1.95;;;7.60;99.90;;;;;;5507017;26;20018;-50
2024/04/14 01:35:41;;;;;;;10.90;2.20;;;7.60;99.90;;;;;;5507133;26;19990;-50
2024/04/14 01:38:06;;;;;;;10.52;2.97;;;7.60;99.90;;;;;;5507510;26;20060;-49
2024/04/14 01:40:32;;;;;;;14.00;3.78;;;7.60;99.90;;;;;;5507189;26;20016;-47
2024/04/14 01:42:57;;;;;;;12.73;2.38;;;7.60;99.90;;;;;;5507130;26;20073;-48
2024/04/14 01:45:23;;;;;;;10.00;2.80;;;7.60;99.90;;;;;;5507168;26;19990;-48
2024/04/14 01:47:49;;;;;;;13.40;1.95;;;7.50;99.90;;;;;;5507183;26;20039;-47
2024/04/14 01:50:15;;;;;;;10.98;2.25;;;7.50;99.90;;;;;;5507161;26;20057;-49
2024/04/14 01:52:41;;;;;;;6.35;2.30;;;7.50;99.90;;;;;;5506876;26;19990;-49
2024/04/14 01:55:07;;;;;;;15.07;2.20;;;7.50;99.90;;;;;;5506682;26;19998;-46
2024/04/14 01:57:33;;;;;;;12.20;2.70;;;7.50;99.90;;;;;;5507148;26;20005;-50
2024/04/14 01:59:59;;;;;;;12.90;2.10;;;7.50;99.90;;;;;;5507031;26;20006;-50
2024/04/14 02:02:24;;;;;;;6.30;1.70;;;7.50;99.90;;;;;;5507040;26;19986;-50
2024/04/14 02:04:50;;;;;;;9.75;2.05;;;7.50;99.90;;;;;;5507015;26;19982;-49
2024/04/14 02:07:16;;;;;;;12.10;2.35;;;7.50;99.90;;;;;;5506607;26;20002;-50
2024/04/14 02:09:41;;;;;;;16.10;2.10;;;7.50;99.90;;;;;;5505961;26;20160;-47
2024/04/14 02:12:07;;;;;;;11.57;2.00;;;7.50;99.90;;;;;;5506917;26;20155;-49
2024/04/14 02:14:33;;;;;;;12.25;2.63;;;7.50;99.90;;;;;;5506943;26;19987;-49
2024/04/14 02:16:58;;;;;;;12.43;2.00;;;7.50;99.90;;;;;;5504358;26;20115;-50
2024/04/14 02:19:25;;;;;;;9.80;2.13;;;7.40;99.90;;;;;;5506746;26;19993;-50
2024/04/14 02:21:50;;;;;;;11.35;2.00;;;7.50;99.90;;;;;;5506614;26;20028;-50
2024/04/14 02:24:16;;;;;;;13.73;1.98;;;7.40;99.90;;;;;;5506714;26;19987;-50
2024/04/14 02:26:41;;;;;;;8.95;1.83;;;7.40;99.90;;;;;;5506525;26;20027;-48
2024/04/14 02:29:07;;;;;;;8.80;1.80;;;7.30;99.90;;;;;;5505527;26;20040;-48
2024/04/14 02:31:33;;;;;;;11.15;2.15;;;7.40;99.90;;;;;;5506755;26;20010;-48
2024/04/14 02:33:58;;;;;;;14.27;3.42;;;7.40;99.90;;;;;;5505514;26;19994;-50
2024/04/14 02:36:27;;;;;;;13.75;2.40;;;7.40;99.90;;;;;;5506699;26;20052;-49
2024/04/14 02:38:53;;;;;;;10.38;2.53;;;7.40;99.90;;;;;;5505579;26;20014;-50
2024/04/14 02:41:18;;;;;;;12.85;2.08;;;7.40;99.90;;;;;;5505645;26;19986;-47
2024/04/14 02:43:45;;;;;;;11.38;2.50;;;7.30;99.90;;;;;;5506532;26;20072;-49
2024/04/14 02:46:11;;;;;;;14.20;2.53;;;7.30;99.90;;;;;;5506250;26;19993;-49
2024/04/14 02:48:37;;;;;;;12.65;1.92;;;7.30;99.90;;;;;;5506431;26;19998;-46
2024/04/14 02:51:03;;;;;;;12.20;2.30;;;7.30;99.90;;;;;;5505876;26;19989;-47
2024/04/14 02:53:29;;;;;;;10.35;1.95;;;7.40;99.90;;;;;;5506188;26;20157;-50
2024/04/14 02:55:55;;;;;;;14.13;2.30;;;7.40;99.90;;;;;;5506415;26;19993;-46
2024/04/14 02:58:20;;;;;;;13.13;2.75;;;7.40;99.90;;;;;;5506448;26;19993;-49
2024/04/14 03:00:46;;;;;;;18.77;2.50;;;7.40;99.90;;;;;;5506169;26;19997;-46
2024/04/14 03:03:12;;;;;;;18.85;2.75;;;7.40;99.90;;;;;;5505643;26;19991;-50
2024/04/14 03:05:38;;;;;;;15.43;2.78;;;7.40;99.90;;;;;;5506277;26;19997;-46
2024/04/14 03:08:05;;;;;;;16.35;2.50;;;7.50;99.90;;;;;;5506290;26;20176;-46
2024/04/14 03:10:32;;;;;;;13.23;2.85;;;7.50;99.90;;;;;;5506185;26;19990;-48
2024/04/14 03:12:57;;;;;;;13.77;2.47;;;7.50;99.90;;;;;;5505794;26;19990;-49
2024/04/14 03:15:23;;;;;;;7.93;1.80;;;7.50;99.90;;;;;;5506009;26;20016;-50
2024/04/14 03:17:48;;;;;;;14.88;2.60;;;7.50;99.90;;;;;;5506025;26;20006;-50
2024/04/14 03:20:15;;;;;;;14.88;2.83;;;7.60;99.90;;;;;;5505894;26;20083;-49
2024/04/14 03:22:40;;;;;;;11.38;1.90;;;7.60;99.90;;;;;;5505233;26;19992;-50
2024/04/14 03:25:06;;;;;;;16.02;2.72;;;7.60;99.90;;;;;;5505891;26;19990;-47
2024/04/14 03:27:32;;;;;;;17.83;2.20;;;7.60;99.90;;;;;;5474443;26;20186;-46
2024/04/14 03:29:57;;;;;;;10.98;1.88;;;7.50;99.90;;;;;;5505552;26;19990;-51
2024/04/14 03:32:23;;;;;;;11.25;2.30;;;7.50;99.90;;;;;;5505538;26;19997;-47
2024/04/14 03:34:51;;;;;;;13.65;2.15;;;7.50;99.90;;;;;;5505554;26;19990;-49
2024/04/14 03:37:17;;;;;;;11.55;2.67;;;7.50;99.90;;;;;;5504531;26;19997;-48
2024/04/14 03:39:42;;;;;;;11.63;2.45;;;7.40;99.90;;;;;;5505324;26;19990;-46
2024/04/14 03:42:08;;;;;;;18.35;2.75;;;7.30;99.90;;;;;;5505632;26;19986;-50
2024/04/14 03:44:34;;;;;;;13.45;2.08;;;7.20;99.90;;;;;;5505484;26;20040;-49
2024/04/14 03:46:59;;;;;;;11.65;2.35;;;7.10;99.90;;;;;;5504300;26;19986;-50
2024/04/14 03:49:25;;;;;;;15.32;2.65;;;7.10;99.90;;;;;;5505350;26;20183;-50
2024/04/14 03:51:51;;;;;;;9.57;1.90;;;7.20;99.90;;;;;;5505517;26;20094;-49
2024/04/14 03:54:16;;;;;;;13.88;3.17;;;7.20;99.90;;;;;;5505231;26;19997;-50
2024/04/14 03:56:42;;;;;;;17.00;2.58;;;7.20;99.90;;;;;;5505335;26;20001;-48
2024/04/14 03:59:08;;;;;;;13.48;2.47;;;7.20;99.90;;;;;;5505029;26;20161;-48
2024/04/14 04:01:34;;;;;;;13.65;2.90;;;7.20;99.90;;;;;;5505069;26;20175;-48
2024/04/14 04:03:59;;;;;;;9.55;1.80;;;7.10;99.90;;;;;;5505009;26;19990;-47
2024/04/14 04:06:25;;;;;;;11.52;2.60;;;7.20;99.90;;;;;;5505283;26;19997;-49
2024/04/14 04:08:51;;;;;;;14.05;2.38;;;7.20;99.90;;;;;;5504990;26;19997;-48
2024/04/14 04:11:16;;;;;;;16.05;2.72;;;7.20;99.90;;;;;;5504995;26;20056;-47
2024/04/14 04:13:42;;;;;;;14.20;3.00;;;7.20;99.90;;;;;;5505145;26;20064;-48
2024/04/14 04:16:07;;;;;;;13.63;2.10;;;7.20;99.90;;;;;;5505098;26;19990;-47
2024/04/14 04:18:33;;;;;;;12.13;2.30;;;7.10;99.90;;;;;;5504282;26;19990;-48
2024/04/14 04:21:00;;;;;;;10.77;2.05;;;7.10;99.90;;;;;;5504687;26;19990;-50
2024/04/14 04:23:29;;;;;;;17.75;2.85;;;7.10;99.90;;;;;;5505065;26;19992;-48
2024/04/14 04:25:57;;;;;;;8.80;2.10;;;7.10;99.90;;;;;;5503705;26;20028;-49
2024/04/14 04:28:27;;;;;;;12.57;2.55;;;7.10;99.90;;;;;;5504673;26;20001;-46
2024/04/14 04:30:52;;;;;;;;;;;7.10;99.90;;;;;;5504125;26;19990;-46
2024/04/14 04:33:19;;;;;;;14.25;2.67;;;7.00;99.90;;;;;;5504513;26;19927;-46
2024/04/14 04:35:58;;;;;;;14.95;2.60;;;7.10;99.90;;;;;;5504444;26;19987;-46
2024/04/14 04:38:23;;;;;;;15.43;2.55;;;7.10;99.90;;;;;;5504538;26;20009;-48
2024/04/14 04:40:49;;;;;;;14.93;2.90;;;7.10;99.90;;;;;;5505750;26;20075;-47
2024/04/14 04:43:15;;;;;;;14.73;2.58;;;7.10;99.90;;;;;;5507869;26;19994;-47
2024/04/14 04:45:41;;;;;;;16.20;2.53;;;7.10;99.90;;;;;;5507992;26;19990;-48
2024/04/14 04:48:07;;;;;;;13.38;2.75;;;7.10;99.90;;;;;;5508022;26;20043;-46
2024/04/14 04:50:33;;;;;;;15.43;2.60;;;7.20;99.90;;;;;;5508039;26;19997;-46
2024/04/14 04:52:59;;;;;;;10.80;2.28;;;7.30;99.90;;;;;;5507830;26;19986;-50
2024/04/14 04:55:24;;;;;;;11.93;2.35;;;7.30;99.90;;;;;;5508011;26;20043;-47
2024/04/14 04:57:50;;;;;;;15.80;2.40;;;7.40;99.90;;;;;;5507971;26;19990;-49
2024/04/14 05:00:16;;;;;;;12.30;2.55;;;7.40;99.90;;;;;;5508175;26;19990;-50
2024/04/14 05:02:41;;;;;;;11.10;2.20;;;7.40;99.90;;;;;;5507166;26;20157;-46
2024/04/14 05:05:07;;;;;;;16.50;2.63;;;7.30;99.90;;;;;;5507598;26;19998;-46
2024/04/14 05:07:33;;;;;;;10.82;2.20;;;7.30;99.90;;;;;;5507631;26;19998;-46
2024/04/14 05:09:58;;;;;;;12.63;2.60;;;7.30;99.90;;;;;;5507838;26;20002;-46
2024/04/14 05:12:24;;;;;;;10.63;2.78;;;7.30;99.90;;;;;;5507754;26;19993;-50
2024/04/14 05:14:50;;;;;;;11.80;2.20;;;7.20;99.90;;;;;;5507672;26;19990;-49
2024/04/14 05:17:15;;;;;;;13.45;3.78;;;7.20;99.90;;;;;;5507314;26;19995;-50
2024/04/14 05:19:41;;;;;;;14.40;2.95;;;7.20;99.90;;;;;;5507503;26;20054;-48
2024/04/14 05:22:07;;;;;;;12.80;2.88;;;7.20;99.90;;;;;;5507730;26;19998;-49
2024/04/14 05:24:32;;;;;;;14.88;2.50;;;7.10;99.90;;;;;;5506721;26;20002;-49
2024/04/14 05:26:58;;;;;;;15.20;2.75;;;7.10;99.90;;;;;;5507128;26;19986;-49
2024/04/14 05:29:27;;;;;;;15.93;2.38;;;7.10;99.90;;;;;;5507457;26;20053;-45
2024/04/14 05:31:53;;;;;;;13.30;2.70;;;7.10;99.90;;;;;;5506291;26;20023;-48
2024/04/14 05:34:18;;;;;;;15.32;2.28;;;7.10;99.90;;;;;;5506943;26;20379;-46
2024/04/14 05:36:44;;;;;;;14.15;1.95;;;7.20;99.90;;;;;;5507302;26;20045;-46
2024/04/14 05:39:10;;;;;;;16.60;2.80;;;7.20;99.90;;;;;;5507058;26;19990;-46
2024/04/14 05:41:36;;;;;;;15.98;2.70;;;7.20;99.90;;;;;;5507314;26;20014;-46
2024/04/14 05:44:01;;;;;;;14.32;2.38;;;7.20;99.90;;;;;;5507211;26;19990;-46
2024/04/14 05:46:27;;;;;;;23.05;3.15;;;7.20;99.90;;;;;;5507074;26;19990;-46
2024/04/14 05:48:53;;;;;;;16.73;2.97;;;7.20;99.90;;;;;;5506941;26;19996;-46
2024/04/14 05:51:19;;;;;;;13.10;2.55;;;7.20;99.90;;;;;;5506561;26;19992;-50
2024/04/14 05:53:45;;;;;;;15.10;2.60;;;7.20;99.90;;;;;;5505897;26;20051;-49
2024/04/14 05:56:11;;;;;;;9.57;2.30;;;7.20;99.90;;;;;;5507161;26;19990;-48
2024/04/14 05:58:37;;;;;;;17.10;3.05;;;7.20;99.90;;;;;;5506891;26;19990;-49
2024/04/14 06:01:04;;;;;;;14.25;3.17;;;7.20;99.90;;;;;;5506706;26;20164;-50
2024/04/14 06:03:30;;;;;;;17.48;4.40;;;7.20;99.90;;;;;;5506763;26;19990;-50
2024/04/14 06:05:55;;;;;;;19.65;4.22;;;7.30;99.90;;;;;;5505862;26;20039;-50
2024/04/14 06:08:21;;;;;;;20.80;6.20;;;7.30;99.90;;;;;;5506657;26;19990;-49
2024/04/14 06:10:46;;;;;;;26.55;6.40;;;7.40;99.90;;;;;;5506523;26;19994;-50
2024/04/14 06:13:13;;;;;;;27.40;9.82;;;7.50;99.90;;;;;;5506494;26;20102;-50
2024/04/14 06:15:39;;;;;;;24.73;8.70;;;7.50;99.90;;;;;;5506751;26;20254;-47
2024/04/14 06:18:05;;;;;;;20.92;4.70;;;7.60;99.90;;;;;;5505948;26;20035;-48
2024/04/14 06:20:31;;;;;;;11.18;3.13;;;7.70;99.90;;;;;;5506788;26;19986;-49
2024/04/14 06:22:56;;;;;;;14.55;2.00;;;7.70;99.90;;;;;;5506289;26;20056;-49
2024/04/14 06:25:22;;;;;;;16.58;2.78;;;7.80;99.90;;;;;;5506634;26;20198;-50
2024/04/14 06:27:47;;;;;;;16.35;3.30;;;7.90;99.90;;;;;;5506587;26;20206;-48
2024/04/14 06:30:13;;;;;;;13.65;4.22;;;8.00;99.90;;;;;;5506561;26;20244;-49
2024/04/14 06:32:40;;;;;;;15.43;3.05;;;8.10;99.90;;;;;;5506308;26;20178;-49
2024/04/14 06:35:06;;;;;;;14.45;2.95;;;8.20;99.90;;;;;;5506332;26;20045;-49
2024/04/14 06:37:31;;;;;;;11.93;2.40;;;8.20;99.90;;;;;;5506544;26;19986;-48
2024/04/14 06:39:57;;;;;;;13.18;2.35;;;8.30;99.90;;;;;;5506346;26;20165;-50
2024/04/14 06:42:23;;;;;;;13.50;2.65;;;8.40;99.90;;;;;;5505582;26;19994;-46
2024/04/14 06:44:48;;;;;;;10.93;2.20;;;8.50;99.90;;;;;;5506320;26;19983;-46
2024/04/14 06:47:14;;;;;;;14.20;2.92;;;8.50;99.90;;;;;;5506089;26;20168;-49
2024/04/14 06:49:40;;;;;;;12.38;2.72;;;8.60;99.90;;;;;;5506132;26;20041;-47
2024/04/14 06:52:05;;;;;;;18.48;2.55;;;8.70;99.90;;;;;;5506328;26;19983;-46
2024/04/14 06:54:31;;;;;;;10.75;2.60;;;8.80;99.90;;;;;;5506306;26;20032;-46
2024/04/14 06:56:57;;;;;;;13.02;2.22;;;8.90;99.90;;;;;;5505932;26;19990;-47
2024/04/14 06:59:22;;;;;;;11.55;2.08;;;9.00;99.90;;;;;;5506269;26;20164;-46
2024/04/14 07:01:48;;;;;;;17.45;3.00;;;9.10;99.90;;;;;;5506133;26;20039;-46
2024/04/14 07:04:14;;;;;;;11.05;2.47;;;9.20;99.90;;;;;;5505280;26;19990;-47
2024/04/14 07:06:39;;;;;;;11.23;2.22;;;9.30;99.90;;;;;;5506028;26;19998;-46
2024/04/14 07:09:05;;;;;;;8.48;1.80;;;9.50;99.90;;;;;;5505858;26;20038;-47
2024/04/14 07:11:31;;;;;;;13.82;2.80;;;9.70;99.90;;;;;;5506140;26;19986;-46
2024/04/14 07:13:56;;;;;;;11.27;2.45;;;9.80;99.90;;;;;;5505458;26;19986;-47
2024/04/14 07:16:22;;;;;;;11.52;2.53;;;10.00;99.90;;;;;;5505818;26;19998;-46
2024/04/14 07:18:48;;;;;;;11.40;1.98;;;10.20;99.90;;;;;;5505803;26;20040;-47
2024/04/14 07:21:14;;;;;;;10.60;3.05;;;10.50;99.90;;;;;;5505310;26;19986;-50
2024/04/14 07:23:39;;;;;;;16.88;3.15;;;10.80;99.90;;;;;;5505487;26;19994;-51
2024/04/14 07:26:05;;;;;;;16.25;2.70;;;11.00;99.90;;;;;;5505609;26;20036;-48
2024/04/14 07:28:30;;;;;;;7.45;1.73;;;11.30;99.90;;;;;;5505477;26;19993;-47
2024/04/14 07:30:56;;;;;;;11.27;2.00;;;11.40;99.90;;;;;;5504113;26;20002;-46
2024/04/14 07:33:22;;;;;;;11.07;2.80;;;11.70;99.90;;;;;;5505351;26;19986;-49
2024/04/14 07:35:47;;;;;;;7.68;1.70;;;11.90;99.90;;;;;;5505146;26;19993;-48
2024/04/14 07:38:13;;;;;;;13.35;2.13;;;12.20;99.90;;;;;;5505379;26;20152;-55
2024/04/14 07:40:43;;;;;;;12.18;1.77;;;12.40;99.90;;;;;;5505358;26;20006;-52
2024/04/14 07:43:08;;;;;;;14.82;2.55;;;12.20;99.90;;;;;;5504022;26;19990;-51
2024/04/14 07:45:35;;;;;;;9.02;1.80;;;12.20;99.90;;;;;;5505264;26;19997;-51
2024/04/14 07:48:00;;;;;;;9.70;2.00;;;12.30;99.90;;;;;;5504932;26;19994;-51
2024/04/14 07:50:26;;;;;;;10.90;2.13;;;12.40;99.90;;;;;;5505463;26;19997;-52
2024/04/14 07:52:51;;;;;;;9.85;2.22;;;12.30;99.90;;;;;;5504878;26;20005;-51
2024/04/14 07:55:17;;;;;;;12.90;2.05;;;12.30;99.90;;;;;;5505092;26;19997;-51
2024/04/14 07:57:43;;;;;;;12.45;1.90;;;12.40;99.90;;;;;;5504944;26;19997;-51
2024/04/14 08:00:09;;;;;;;14.30;2.22;;;12.50;99.90;;;;;;5505165;26;19997;-52
2024/04/14 08:02:34;;;;;;;14.63;1.80;;;12.80;99.90;;;;;;5505054;26;19990;-52
2024/04/14 08:05:00;;;;;;;7.32;1.80;;;13.00;99.90;;;;;;5504802;26;19990;-47
2024/04/14 08:07:26;;;;;;;8.80;1.80;;;13.10;99.90;;;;;;5505161;26;19993;-48
2024/04/14 08:09:52;;;;;;;7.32;1.92;;;12.80;99.90;;;;;;5504934;26;19986;-51
2024/04/14 08:12:17;;;;;;;13.02;3.05;;;12.70;99.90;;;;;;5504703;26;20016;-51
2024/04/14 08:14:43;;;;;;;11.30;1.95;;;12.70;99.90;;;;;;5504445;26;20067;-51
2024/04/14 08:17:08;;;;;;;9.38;1.85;;;13.10;99.90;;;;;;5507582;26;20049;-51
2024/04/14 08:19:34;;;;;;;8.90;2.45;;;13.30;99.90;;;;;;5508086;26;19986;-52
2024/04/14 08:22:00;;;;;;;10.77;2.33;;;13.50;99.90;;;;;;5508083;26;20156;-50
2024/04/14 08:24:25;;;;;;;9.65;1.83;;;13.30;99.90;;;;;;5508071;26;19986;-51
2024/04/14 08:26:51;;;;;;;9.45;1.67;;;13.60;99.90;;;;;;5506976;26;20042;-52
2024/04/14 08:29:17;;;;;;;10.45;2.22;;;14.00;99.90;;;;;;5507578;26;20088;-51
2024/04/14 08:31:42;;;;;;;8.13;1.90;;;14.20;99.90;;;;;;5506888;26;20056;-50
2024/04/14 08:34:08;;;;;;;8.98;1.80;;;14.70;99.90;;;;;;5507630;26;20060;-48
2024/04/14 08:36:33;;;;;;;15.77;2.72;;;14.10;99.90;;;;;;5506988;26;19986;-47
2024/04/14 08:38:59;;;;;;;8.93;2.38;;;13.60;99.90;;;;;;5507636;26;20161;-49
2024/04/14 08:41:25;;;;;;;9.00;2.00;;;13.30;99.90;;;;;;5507841;26;20165;-48
2024/04/14 08:43:52;;;;;;;7.88;2.45;;;13.10;99.90;;;;;;5507903;26;20040;-51
2024/04/14 08:46:18;;;;;;;8.55;1.88;;;13.50;99.90;;;;;;5507182;26;20153;-49
2024/04/14 08:48:44;;;;;;;10.10;2.30;;;13.90;99.90;;;;;;5476358;26;19986;-49
2024/04/14 08:51:10;;;;;;;11.15;2.65;;;13.50;99.90;;;;;;5476074;26;20005;-50
2024/04/14 08:53:35;;;;;;;8.85;1.73;;;13.30;99.90;;;;;;5506253;26;20056;-48
2024/04/14 08:56:01;;;;;;;7.50;1.55;;;13.40;99.90;;;;;;5507682;26;20000;-48
2024/04/14 08:58:27;;;;;;;9.32;1.77;;;14.10;99.90;;;;;;5506814;26;19986;-50
2024/04/14 09:00:59;;;;;;;8.25;1.65;;;14.90;99.90;;;;;;5507392;26;20002;-52
2024/04/14 09:03:24;;;;;;;10.70;2.45;;;15.40;99.90;;;;;;5477422;26;19997;-51
2024/04/14 09:05:50;;;;;;;9.57;3.78;;;15.70;99.90;;;;;;5507088;26;19991;-50
2024/04/14 09:08:16;;;;;;;10.20;2.00;;;16.20;99.90;;;;;;5506076;26;19987;-51
2024/04/14 09:10:41;;;;;;;8.13;1.95;;;15.70;99.90;;;;;;5507405;26;20031;-48
2024/04/14 09:13:08;;;;;;;9.57;1.52;;;14.80;99.90;;;;;;5507077;26;20108;-51
2024/04/14 09:15:40;;;;;;;11.55;2.08;;;14.80;99.90;;;;;;5505690;26;19986;-48
2024/04/14 09:18:06;;;;;;;5.95;1.67;;;14.50;99.90;;;;;;5507350;26;19993;-51
2024/04/14 09:20:32;;;;;;;6.20;1.73;;;14.60;99.90;;;;;;5507337;26;19990;-50
2024/04/14 09:22:58;;;;;;;8.77;1.55;;;14.90;99.90;;;;;;5506826;26;19990;-47
2024/04/14 09:25:24;;;;;;;4.68;1.23;;;15.30;99.90;;;;;;5507392;26;20014;-50
2024/04/14 09:28:00;;;;;;;6.65;1.50;;;15.70;99.90;;;;;;5476041;26;19990;-51
2024/04/14 09:30:25;;;;;;;9.95;2.03;;;15.90;99.90;;;;;;5507263;26;20009;-48
2024/04/14 09:32:51;;;;;;;7.80;1.50;;;16.20;99.90;;;;;;5507010;26;19990;-50
2024/04/14 09:35:17;;;;;;;6.55;1.52;;;16.10;99.90;;;;;;5506243;26;19997;-49
2024/04/14 09:37:43;;;;;;;6.93;1.80;;;16.10;99.90;;;;;;5505997;26;19990;-51
2024/04/14 09:40:09;;;;;;;4.80;1.65;;;15.80;99.90;;;;;;5507068;26;19994;-47
2024/04/14 09:42:35;;;;;;;7.47;1.67;;;16.50;99.90;;;;;;5506280;26;19986;-48
2024/04/14 09:45:05;;;;;;;5.55;1.40;;;16.40;99.90;;;;;;5506509;26;19993;-47
2024/04/14 09:47:31;;;;;;;13.40;1.85;;;16.20;99.90;;;;;;5506380;26;20155;-51
2024/04/14 09:49:57;;;;;;;6.28;1.58;;;15.50;99.90;;;;;;5506609;26;19994;-47
2024/04/14 09:52:23;;;;;;;8.50;1.50;;;14.80;99.90;;;;;;5505791;26;19990;-47
2024/04/14 09:54:48;;;;;;;6.22;1.73;;;15.30;99.90;;;;;;5506332;26;19997;-48
2024/04/14 09:57:14;;;;;;;10.05;1.80;;;15.70;99.90;;;;;;5506429;26;19990;-52
2024/04/14 09:59:40;;;;;;;8.90;1.52;;;15.60;99.90;;;;;;5505748;26;20035;-47
2024/04/14 10:02:07;;;;;;;6.72;1.63;;;16.10;99.90;;;;;;5505149;26;19986;-49
2024/04/14 10:04:33;;;;;;;6.47;1.70;;;15.90;99.90;;;;;;5475557;26;20002;-50
2024/04/14 10:07:01;;;;;;;6.57;1.70;;;16.20;99.90;;;;;;5505101;26;19986;-51
2024/04/14 10:09:26;;;;;;;6.20;1.58;;;16.10;99.90;;;;;;5474507;26;19986;-51
2024/04/14 10:11:52;;;;;;;6.13;1.27;;;15.50;99.90;;;;;;5505628;26;19990;-49
2024/04/14 10:14:19;;;;;;;6.25;1.10;;;15.80;99.90;;;;;;5506399;26;20164;-48
2024/04/14 10:16:54;;;;;;;4.53;1.38;;;16.50;99.90;;;;;;5505059;26;20019;-49
2024/04/14 10:19:21;;;;;;;6.85;1.65;;;16.50;99.90;;;;;;5505835;26;19998;-51
2024/04/14 10:21:47;;;;;;;8.25;1.83;;;16.90;99.90;;;;;;5506044;26;19993;-51
2024/04/14 10:24:12;;;;;;;5.53;1.77;;;15.90;99.90;;;;;;5506310;26;20185;-49
2024/04/14 10:26:38;;;;;;;11.95;1.65;;;15.40;99.90;;;;;;5506362;26;19997;-50
2024/04/14 10:29:06;;;;;;;6.13;1.55;;;14.80;99.90;;;;;;5505772;26;20031;-50
2024/04/14 10:31:34;;;;;;;5.78;1.33;;;14.40;99.90;;;;;;5505956;26;20048;-49
2024/04/14 10:34:06;;;;;;;202.98;140.20;;;14.20;99.90;;;;;;5505959;26;19987;-51
2024/04/14 10:36:35;;;;;;;88.50;49.10;;;14.50;99.90;;;;;;5506362;26;20014;-50
2024/04/14 10:39:01;;;;;;;12.23;7.28;;;14.80;99.90;;;;;;5503548;26;19994;-49
2024/04/14 10:41:28;;;;;;;14.30;5.90;;;14.80;99.90;;;;;;5504906;26;19994;-52
2024/04/14 10:43:53;;;;;;;8.25;3.30;;;15.10;99.90;;;;;;5505149;26;19986;-52
2024/04/14 10:46:19;;;;;;;4.65;1.60;;;15.30;99.90;;;;;;5504732;26;20031;-51
2024/04/14 10:48:45;;;;;;;5.93;2.28;;;15.60;99.90;;;;;;5505259;26;20164;-51
2024/04/14 10:51:11;;;;;;;5.97;2.95;;;15.70;99.90;;;;;;5505274;26;19993;-51
2024/04/14 10:53:40;;;;;;;7.00;2.17;;;16.10;99.90;;;;;;5505095;26;19987;-51
2024/04/14 10:56:06;;;;;;;7.40;2.08;;;15.60;99.90;;;;;;5505095;26;19997;-54
2024/04/14 10:58:33;;;;;;;7.35;2.30;;;15.30;99.90;;;;;;5505199;26;20036;-52
2024/04/14 11:01:00;;;;;;;4.07;1.23;;;15.70;99.90;;;;;;5504447;26;20071;-52
2024/04/14 11:03:26;;;;;;;6.65;2.13;;;15.30;99.90;;;;;;5504597;26;19997;-52
2024/04/14 11:05:52;;;;;;;7.32;1.58;;;15.00;99.90;;;;;;5503989;26;20052;-53
2024/04/14 11:08:17;;;;;;;5.10;1.50;;;14.90;99.90;;;;;;5505254;26;19986;-53
2024/04/14 11:10:43;;;;;;;5.07;1.30;;;15.10;99.90;;;;;;5474039;26;19996;-53
2024/04/14 11:13:09;;;;;;;7.43;1.67;;;14.60;99.90;;;;;;5503530;26;19990;-53
2024/04/14 11:15:37;;;;;;;6.80;1.42;;;14.70;99.90;;;;;;5504265;26;20210;-53
2024/04/14 11:18:02;;;;;;;9.70;2.47;;;15.30;99.90;;;;;;5504972;26;19994;-53
2024/04/14 11:20:28;;;;;;;8.80;1.85;;;15.30;99.90;;;;;;5504600;26;20039;-52
2024/04/14 11:22:54;;;;;;;8.88;1.70;;;15.50;99.90;;;;;;5504776;26;20161;-49
2024/04/14 11:25:19;;;;;;;7.45;1.65;;;16.10;99.90;;;;;;5503995;26;19994;-53
2024/04/14 11:27:45;;;;;;;4.05;1.30;;;16.20;99.90;;;;;;5504618;26;19997;-53
2024/04/14 11:30:11;;;;;;;5.82;1.20;;;15.80;99.90;;;;;;5503560;26;19987;-52
2024/04/14 11:32:38;;;;;;;4.88;1.20;;;16.40;99.90;;;;;;5504302;26;19990;-52
2024/04/14 11:35:05;;;;;;;5.78;1.05;;;16.90;99.90;;;;;;5504177;26;20173;-52
2024/04/14 11:37:31;;;;;;;6.32;1.30;;;16.80;99.90;;;;;;5503904;26;19990;-52
2024/04/14 11:39:59;;;;;;;7.57;1.85;;;17.00;99.90;;;;;;5504282;26;19986;-52
2024/04/14 11:42:26;;;;;;;8.15;1.42;;;17.10;99.90;;;;;;5504656;26;19987;-52
2024/04/14 11:44:51;;;;;;;4.15;1.52;;;16.40;99.90;;;;;;5503585;26;19982;-52
2024/04/14 11:47:18;;;;;;;5.35;1.50;;;16.10;99.90;;;;;;5503185;26;19998;-49
2024/04/14 11:49:44;;;;;;;4.60;1.20;;;16.50;99.90;;;;;;5503619;26;20073;-52
2024/04/14 11:52:10;;;;;;;2.85;1.00;;;16.80;99.90;;;;;;5503757;26;20002;-51
2024/04/14 11:54:36;;;;;;;3.20;1.25;;;16.70;99.90;;;;;;5503703;26;19990;-50
2024/04/14 11:57:01;;;;;;;4.63;1.73;;;16.40;99.90;;;;;;5502938;26;19994;-50
2024/04/14 11:59:27;;;;;;;2.63;1.08;;;16.30;99.90;;;;;;5504063;26;19990;-50
2024/04/14 12:01:53;;;;;;;6.68;1.33;;;15.90;99.90;;;;;;5504401;26;20035;-51
2024/04/14 12:04:19;;;;;;;5.63;1.42;;;15.90;99.90;;;;;;5504289;26;19997;-47
2024/04/14 12:06:44;;;;;;;4.95;1.30;;;16.20;99.90;;;;;;5503339;26;19986;-50
2024/04/14 12:09:10;;;;;;;4.82;1.48;;;16.10;99.90;;;;;;5504069;26;19986;-51
2024/04/14 12:11:35;;;;;;;6.68;1.60;;;16.10;99.90;;;;;;5503932;26;19986;-49
2024/04/14 12:14:01;;;;;;;5.95;1.70;;;16.50;99.90;;;;;;5503626;26;20017;-50
2024/04/14 12:16:27;;;;;;;6.25;1.50;;;17.00;99.90;;;;;;5504161;26;19997;-48
2024/04/14 12:18:52;;;;;;;10.80;1.40;;;16.20;99.90;;;;;;5503795;26;19993;-51
2024/04/14 12:21:18;;;;;;;6.03;1.33;;;15.50;99.90;;;;;;5503991;26;19987;-50
2024/04/14 12:23:44;;;;;;;6.53;1.40;;;15.80;99.90;;;;;;5504470;26;19990;-48
2024/04/14 12:26:10;;;;;;;4.57;1.88;;;16.20;99.90;;;;;;5504030;26;19990;-50
2024/04/14 12:28:35;;;;;;;6.38;1.42;;;15.50;99.90;;;;;;5503691;26;20165;-48
2024/04/14 12:31:01;;;;;;;5.40;1.05;;;15.40;99.90;;;;;;5503382;26;19997;-49
2024/04/14 12:33:27;;;;;;;7.85;1.33;;;15.30;99.90;;;;;;5502206;26;19990;-47
2024/04/14 12:35:52;;;;;;;5.50;1.20;;;16.00;99.90;;;;;;5503369;26;19990;-48
2024/04/14 12:38:18;;;;;;;15.77;7.30;;;15.50;99.90;;;;;;5503568;26;20171;-47